createdAt,value
2023-02-03T00:00:09.232Z,64.56
2023-02-03T00:02:37.390Z,64.57
2023-02-03T00:05:06.115Z,63.33
2023-02-03T00:07:34.901Z,63.57
2023-02-03T00:10:03.890Z,62.78
2023-02-03T00:12:31.622Z,62.86
2023-02-03T00:15:00.770Z,63.10
2023-02-03T00:17:28.644Z,63.19
2023-02-03T00:19:56.342Z,63.49
2023-02-03T00:22:24.105Z,63.77
2023-02-03T00:24:51.818Z,63.54
2023-02-03T00:27:19.582Z,64.03
2023-02-03T00:29:47.335Z,63.67
2023-02-03T00:32:16.509Z,63.89
2023-02-03T00:34:44.347Z,64.83
2023-02-03T00:37:13.663Z,63.78
2023-02-03T00:39:41.463Z,64.55
2023-02-03T00:42:09.184Z,66.18
2023-02-03T00:44:36.969Z,65.21
2023-02-03T00:47:04.735Z,64.77
2023-02-03T00:49:33.826Z,66.05
2023-02-03T00:52:01.659Z,66.61
2023-02-03T00:54:29.459Z,65.74
2023-02-03T00:56:57.583Z,66.25
2023-02-03T00:59:25.306Z,66.30
2023-02-03T01:01:53.252Z,65.64
2023-02-03T01:04:21.164Z,66.57
2023-02-03T01:06:50.296Z,65.96
2023-02-03T01:09:18.079Z,66.24
2023-02-03T01:11:45.781Z,67.31
2023-02-03T01:14:13.504Z,66.90
2023-02-03T01:16:41.275Z,66.46
2023-02-03T01:19:09.329Z,66.83
2023-02-03T01:21:37.365Z,66.81
2023-02-03T01:24:06.615Z,66.19
2023-02-03T01:26:34.351Z,66.73
2023-02-03T01:29:02.315Z,66.17
2023-02-03T01:31:31.864Z,66.34
2023-02-03T01:34:00.126Z,65.69
2023-02-03T01:36:30.060Z,64.69
2023-02-03T01:38:58.030Z,64.01
2023-02-03T01:41:29.186Z,63.71
2023-02-03T01:43:58.863Z,63.82
2023-02-03T01:46:31.315Z,63.53
2023-02-03T01:49:06.243Z,63.36
2023-02-03T01:51:34.003Z,63.36
2023-02-03T01:54:02.650Z,63.31
2023-02-03T01:56:36.158Z,63.92
2023-02-03T01:59:03.838Z,64.35
2023-02-03T02:01:33.077Z,64.16
2023-02-03T02:04:03.819Z,63.92
2023-02-03T02:06:31.865Z,64.22
2023-02-03T02:09:01.595Z,64.48
2023-02-03T02:11:31.072Z,66.02
2023-02-03T02:14:03.167Z,65.93
2023-02-03T02:16:42.270Z,65.57
2023-02-03T02:19:43.860Z,66.43
2023-02-03T02:22:19.550Z,67.01
2023-02-03T02:25:20.225Z,66.32
2023-02-03T02:28:11.312Z,65.57
2023-02-03T02:31:06.033Z,66.39
2023-02-03T02:33:42.996Z,66.40
2023-02-03T02:36:20.967Z,65.93
2023-02-03T02:38:58.972Z,66.71
2023-02-03T02:41:32.861Z,67.32
2023-02-03T02:44:06.030Z,67.54
2023-02-03T02:46:38.748Z,66.96
2023-02-03T02:49:14.306Z,66.24
2023-02-03T02:51:45.210Z,67.48
2023-02-03T02:54:18.334Z,68.98
2023-02-03T02:56:50.695Z,68.32
2023-02-03T02:59:18.642Z,68.81
2023-02-03T03:01:46.470Z,67.89
2023-02-03T03:04:19.283Z,69.46
2023-02-03T03:06:50.162Z,69.29
2023-02-03T03:09:23.007Z,69.18
2023-02-03T03:11:52.580Z,70.13
2023-02-03T03:14:23.343Z,67.15
2023-02-03T03:17:01.001Z,66.83
2023-02-03T03:19:33.815Z,67.10
2023-02-03T03:22:05.090Z,66.74
2023-02-03T03:24:35.882Z,66.70
2023-02-03T03:27:09.239Z,69.37
2023-02-03T03:29:43.057Z,68.98
2023-02-03T03:32:11.231Z,69.91
2023-02-03T03:34:41.217Z,69.58
2023-02-03T03:37:15.218Z,71.58
2023-02-03T03:39:48.442Z,71.11
2023-02-03T03:42:24.407Z,70.74
2023-02-03T03:44:57.660Z,70.02
2023-02-03T03:47:32.178Z,70.26
2023-02-03T03:50:03.631Z,70.10
2023-02-03T03:52:35.412Z,70.46
2023-02-03T03:55:04.476Z,70.30
2023-02-03T03:57:36.606Z,68.99
2023-02-03T04:00:10.174Z,70.19
2023-02-03T04:02:41.120Z,70.97
2023-02-03T04:05:13.065Z,71.21
2023-02-03T04:07:42.830Z,70.40
2023-02-03T04:10:19.525Z,70.23
2023-02-03T04:12:47.237Z,70.11
2023-02-03T04:15:15.016Z,70.15
2023-02-03T04:17:42.808Z,70.46
2023-02-03T04:20:13.625Z,69.48
2023-02-03T04:22:41.375Z,69.67
2023-02-03T04:25:09.672Z,71.05
2023-02-03T04:27:37.492Z,70.84
2023-02-03T04:30:06.436Z,69.59
2023-02-03T04:32:35.436Z,70.80
2023-02-03T04:35:04.083Z,70.31
2023-02-03T04:37:33.311Z,68.86
2023-02-03T04:40:01.151Z,69.57
2023-02-03T04:42:29.394Z,71.32
2023-02-03T04:44:57.166Z,71.71
2023-02-03T04:47:24.898Z,72.04
2023-02-03T04:49:52.615Z,72.16
2023-02-03T04:52:20.310Z,72.49
2023-02-03T04:54:49.496Z,72.26
2023-02-03T04:57:17.222Z,71.34
2023-02-03T04:59:45.022Z,70.57
2023-02-03T05:02:12.723Z,69.59
2023-02-03T05:04:40.443Z,71.66
2023-02-03T05:07:08.241Z,71.14
2023-02-03T05:09:35.955Z,72.75
2023-02-03T05:12:05.512Z,72.78
2023-02-03T05:14:33.192Z,73.30
2023-02-03T05:17:01.028Z,72.57
2023-02-03T05:19:28.744Z,71.50
2023-02-03T05:21:56.515Z,70.85
2023-02-03T05:24:24.208Z,71.14
2023-02-03T05:26:52.071Z,70.52
2023-02-03T05:29:21.339Z,71.19
2023-02-03T05:31:49.058Z,69.53
2023-02-03T05:34:16.847Z,68.92
2023-02-03T05:36:44.661Z,70.45
2023-02-03T05:39:12.350Z,70.36
2023-02-03T05:41:57.205Z,69.23
2023-02-03T05:44:29.102Z,69.95
2023-02-03T05:46:58.112Z,68.97
2023-02-03T05:49:26.289Z,69.47
2023-02-03T05:51:56.084Z,70.06
2023-02-03T05:54:24.151Z,69.97
2023-02-03T05:56:52.408Z,71.07
2023-02-03T05:59:20.106Z,72.72
2023-02-03T06:01:49.388Z,71.78
2023-02-03T06:04:17.363Z,72.15
2023-02-03T06:06:45.090Z,75.57
2023-02-03T06:09:12.897Z,73.05
2023-02-03T06:11:42.679Z,71.30
2023-02-03T06:14:10.402Z,71.79
2023-02-03T06:16:38.200Z,73.25
2023-02-03T06:19:07.377Z,72.66
2023-02-03T06:21:35.095Z,71.59
2023-02-03T06:24:03.598Z,70.96
2023-02-03T06:26:31.611Z,71.35
2023-02-03T06:28:59.323Z,71.42
2023-02-03T06:31:27.145Z,71.18
2023-02-03T06:33:57.194Z,71.48
2023-02-03T06:36:26.312Z,72.83
2023-02-03T06:38:54.023Z,72.97
2023-02-03T06:41:27.373Z,73.57
2023-02-03T06:43:55.151Z,73.93
2023-02-03T06:46:23.010Z,75.61
2023-02-03T06:48:50.745Z,74.30
2023-02-03T06:51:18.615Z,75.58
2023-02-03T06:53:47.771Z,73.74
2023-02-03T06:56:15.548Z,72.21
2023-02-03T06:58:44.447Z,72.94
2023-02-03T07:01:12.214Z,72.68
2023-02-03T07:03:39.964Z,72.20
2023-02-03T07:06:08.554Z,71.89
2023-02-03T07:08:36.263Z,71.39
2023-02-03T07:11:06.119Z,73.88
2023-02-03T07:13:33.909Z,74.62
2023-02-03T07:16:01.733Z,73.40
2023-02-03T07:18:47.869Z,74.24
2023-02-03T07:21:16.620Z,74.97
2023-02-03T07:23:44.534Z,75.33
2023-02-03T07:26:13.641Z,75.11
2023-02-03T07:28:41.670Z,75.28
2023-02-03T07:31:10.403Z,75.76
2023-02-03T07:33:38.889Z,76.65
2023-02-03T07:36:08.733Z,74.99
2023-02-03T07:38:37.944Z,73.85
2023-02-03T07:41:05.971Z,72.47
2023-02-03T07:43:35.140Z,72.70
2023-02-03T07:46:02.938Z,72.46
2023-02-03T07:48:30.653Z,72.71
2023-02-03T07:50:58.363Z,72.29
2023-02-03T07:53:26.079Z,71.51
2023-02-03T07:55:53.789Z,72.00
2023-02-03T07:58:21.514Z,72.21
2023-02-03T08:00:50.611Z,72.70
2023-02-03T08:03:18.316Z,72.48
2023-02-03T08:05:46.046Z,72.69
2023-02-03T08:08:13.852Z,73.74
2023-02-03T08:10:41.612Z,72.88
2023-02-03T08:13:09.346Z,71.86
2023-02-03T08:15:37.422Z,72.65
2023-02-03T08:18:08.734Z,73.28
2023-02-03T08:20:36.823Z,74.03
2023-02-03T08:23:04.530Z,73.98
2023-02-03T08:25:32.607Z,73.88
2023-02-03T08:28:00.419Z,73.01
2023-02-03T08:30:28.590Z,73.58
2023-02-03T08:32:56.691Z,74.67
2023-02-03T08:35:26.195Z,74.79
2023-02-03T08:37:53.935Z,74.58
2023-02-03T08:40:21.968Z,74.86
2023-02-03T08:42:49.828Z,75.54
2023-02-03T08:45:17.581Z,76.80
2023-02-03T08:47:45.351Z,75.04
2023-02-03T08:50:13.536Z,74.94
2023-02-03T08:52:42.658Z,73.89
2023-02-03T08:55:11.524Z,73.84
2023-02-03T08:57:39.974Z,72.71
2023-02-03T09:00:09.000Z,72.12
2023-02-03T09:02:36.838Z,72.23
2023-02-03T09:05:04.737Z,71.83
2023-02-03T09:07:32.588Z,71.18
2023-02-03T09:10:01.653Z,70.98
2023-02-03T09:12:29.400Z,70.91
2023-02-03T09:14:57.139Z,70.43
2023-02-03T09:17:24.852Z,70.98
2023-02-03T09:19:52.624Z,71.71
2023-02-03T09:22:20.477Z,69.83
2023-02-03T09:24:50.607Z,70.70
2023-02-03T09:27:19.856Z,72.29
2023-02-03T09:29:47.547Z,73.15
2023-02-03T09:32:15.881Z,74.58
2023-02-03T09:34:43.742Z,74.49
2023-02-03T09:37:11.560Z,75.10
2023-02-03T09:39:39.317Z,75.22
2023-02-03T09:42:34.860Z,73.69
2023-02-03T09:45:11.708Z,73.44
2023-02-03T09:47:43.294Z,73.65
2023-02-03T09:50:15.634Z,71.91
2023-02-03T09:52:45.249Z,72.96
2023-02-03T09:55:25.479Z,73.67
2023-02-03T09:58:01.804Z,76.68
2023-02-03T10:00:33.712Z,75.91
2023-02-03T10:03:08.463Z,75.19
2023-02-03T10:05:58.533Z,78.59
2023-02-03T10:08:36.101Z,78.04
2023-02-03T10:11:18.179Z,79.97
2023-02-03T10:13:57.185Z,80.29
2023-02-03T10:16:38.867Z,78.22
2023-02-03T10:19:13.159Z,79.21
2023-02-03T10:21:44.445Z,79.12
2023-02-03T10:24:16.774Z,79.63
2023-02-03T10:26:44.525Z,79.12
2023-02-03T10:29:21.284Z,79.60
2023-02-03T10:31:49.564Z,78.60
2023-02-03T10:34:19.831Z,78.63
2023-02-03T10:36:57.500Z,79.52
2023-02-03T10:39:32.214Z,76.57
2023-02-03T10:42:00.791Z,77.43
2023-02-03T10:44:37.491Z,77.98
2023-02-03T10:47:19.343Z,78.83
2023-02-03T10:49:47.377Z,80.74
2023-02-03T10:52:27.666Z,78.98
2023-02-03T10:54:55.989Z,79.43
2023-02-03T10:57:24.222Z,81.62
2023-02-03T10:59:53.450Z,80.89
2023-02-03T11:02:26.952Z,80.97
2023-02-03T11:05:12.615Z,80.79
2023-02-03T11:07:40.374Z,81.57
2023-02-03T11:10:30.896Z,78.20
2023-02-03T11:13:19.234Z,79.17
2023-02-03T11:15:57.026Z,77.54
2023-02-03T11:18:45.415Z,80.88
2023-02-03T11:21:19.366Z,80.72
2023-02-03T11:23:50.943Z,77.54
2023-02-03T11:26:22.176Z,78.20
2023-02-03T11:28:52.658Z,79.08
2023-02-03T11:31:25.344Z,79.09
2023-02-03T11:33:57.762Z,79.34
2023-02-03T11:36:28.374Z,78.56
2023-02-03T11:39:11.655Z,78.37
2023-02-03T11:41:41.160Z,78.00
2023-02-03T11:44:14.166Z,79.70
2023-02-03T11:46:44.325Z,76.87
2023-02-03T11:49:33.785Z,78.66
2023-02-03T11:52:11.795Z,77.23
2023-02-03T11:54:48.850Z,76.83
2023-02-03T11:57:31.873Z,77.74
2023-02-03T12:00:13.110Z,77.85
2023-02-03T12:03:19.576Z,77.40
2023-02-03T12:06:03.246Z,76.53
2023-02-03T12:08:40.048Z,74.55
2023-02-03T12:11:18.473Z,74.28
2023-02-03T12:14:11.963Z,74.28
2023-02-03T12:17:02.130Z,76.02
2023-02-03T12:19:45.373Z,71.88
2023-02-03T12:22:21.318Z,71.29
2023-02-03T12:25:00.699Z,71.00
2023-02-03T12:27:43.977Z,69.83
2023-02-03T12:30:19.551Z,69.50
2023-02-03T12:32:52.301Z,73.27
2023-02-03T12:35:24.352Z,75.33
2023-02-03T12:38:00.167Z,73.10
2023-02-03T12:40:36.870Z,72.97
2023-02-03T12:43:20.202Z,73.26
2023-02-03T12:45:55.770Z,72.06
2023-02-03T12:48:29.477Z,72.03
2023-02-03T12:51:02.338Z,75.23
2023-02-03T12:53:35.654Z,75.12
2023-02-03T12:56:06.460Z,75.40
2023-02-03T12:58:39.038Z,74.52
2023-02-03T13:01:10.409Z,72.19
2023-02-03T13:03:45.584Z,73.46
2023-02-03T13:06:17.763Z,73.50
2023-02-03T13:08:55.332Z,73.84
2023-02-03T13:11:30.073Z,74.69
2023-02-03T13:14:05.011Z,76.11
2023-02-03T13:16:38.181Z,76.60
2023-02-03T13:19:11.918Z,75.78
2023-02-03T13:21:39.710Z,75.90
2023-02-03T13:24:10.635Z,74.93
2023-02-03T13:27:04.976Z,72.83
2023-02-03T13:29:54.387Z,75.55
2023-02-03T13:32:40.364Z,75.41
2023-02-03T13:35:33.138Z,77.50
2023-02-03T13:38:27.262Z,78.66
2023-02-03T13:41:06.295Z,77.37
2023-02-03T13:43:39.142Z,78.23
2023-02-03T13:46:20.326Z,78.39
2023-02-03T13:48:49.166Z,78.82
2023-02-03T13:51:21.121Z,79.81
2023-02-03T13:53:51.754Z,79.56
2023-02-03T13:56:23.048Z,80.42
2023-02-03T13:59:02.658Z,80.05
2023-02-03T14:01:38.839Z,78.99
2023-02-03T14:04:09.119Z,77.43
2023-02-03T14:07:01.819Z,79.40
2023-02-03T14:09:55.499Z,78.87
2023-02-03T14:12:37.082Z,77.10
2023-02-03T14:15:23.910Z,78.88
2023-02-03T14:18:27.267Z,77.14
2023-02-03T14:21:23.396Z,75.96
2023-02-03T14:24:03.319Z,75.71
2023-02-03T14:26:39.843Z,74.85
2023-02-03T14:29:10.760Z,75.52
2023-02-03T14:31:58.914Z,74.54
2023-02-03T14:34:35.597Z,75.04
2023-02-03T14:37:22.688Z,76.08
2023-02-03T14:40:25.619Z,74.17
2023-02-03T14:43:15.122Z,75.18
2023-02-03T14:46:00.735Z,74.13
2023-02-03T14:48:47.503Z,74.04
2023-02-03T14:51:27.797Z,74.11
2023-02-03T14:54:17.999Z,72.18
2023-02-03T14:57:13.941Z,71.59
2023-02-03T14:59:45.649Z,73.62
2023-02-03T15:02:20.987Z,71.99
2023-02-03T15:04:50.733Z,71.26
2023-02-03T15:07:48.488Z,72.15
2023-02-03T15:10:19.631Z,70.19
2023-02-03T15:12:50.108Z,70.88
2023-02-03T15:15:23.156Z,70.58
2023-02-03T15:17:54.776Z,68.88
2023-02-03T15:20:30.525Z,69.05
2023-02-03T15:22:58.599Z,68.83
2023-02-03T15:25:28.376Z,68.95
2023-02-03T15:27:56.398Z,69.80
2023-02-03T15:30:28.046Z,70.69
2023-02-03T15:33:04.913Z,71.02
2023-02-03T15:35:35.446Z,70.95
2023-02-03T15:38:07.320Z,70.75
2023-02-03T15:40:39.366Z,70.71
2023-02-03T15:43:13.455Z,70.39
2023-02-03T15:45:46.031Z,72.24
2023-02-03T15:48:29.324Z,73.66
2023-02-03T15:51:02.669Z,73.31
2023-02-03T15:53:46.903Z,73.91
2023-02-03T15:56:22.748Z,74.34
2023-02-03T15:58:51.417Z,72.79
2023-02-03T16:01:26.065Z,73.22
2023-02-03T16:03:58.078Z,72.36
2023-02-03T16:06:30.404Z,71.58
2023-02-03T16:08:59.572Z,71.47
2023-02-03T16:11:33.899Z,71.41
2023-02-03T16:14:04.405Z,72.42
2023-02-03T16:16:38.346Z,72.18
2023-02-03T16:19:14.217Z,71.97
2023-02-03T16:21:54.302Z,72.58
2023-02-03T16:24:40.257Z,71.64
2023-02-03T16:27:34.097Z,71.89
2023-02-03T16:30:41.409Z,71.22
2023-02-03T16:33:33.778Z,71.33
2023-02-03T16:36:29.623Z,71.36
2023-02-03T16:39:14.986Z,71.62
2023-02-03T16:42:00.337Z,71.57
2023-02-03T16:44:45.734Z,72.02
2023-02-03T16:47:42.319Z,70.31
2023-02-03T16:50:38.229Z,70.62
2023-02-03T16:53:13.397Z,71.46
2023-02-03T16:55:41.353Z,71.10
2023-02-03T16:58:09.594Z,71.78
2023-02-03T17:00:41.308Z,73.37
2023-02-03T17:03:09.458Z,73.97
2023-02-03T17:05:38.422Z,75.62
2023-02-03T17:08:06.636Z,74.51
2023-02-03T17:10:36.583Z,73.70
2023-02-03T17:13:04.981Z,74.02
2023-02-03T17:15:33.247Z,75.08
2023-02-03T17:18:01.137Z,75.16
2023-02-03T17:20:28.919Z,76.37
2023-02-03T17:22:56.661Z,74.97
2023-02-03T17:25:24.628Z,75.21
2023-02-03T17:27:53.798Z,75.64
2023-02-03T17:30:21.736Z,73.94
2023-02-03T17:32:49.563Z,73.74
2023-02-03T17:35:17.507Z,74.02
2023-02-03T17:37:45.183Z,73.50
2023-02-03T17:54:06.537Z,72.60
2023-02-03T17:56:36.324Z,72.46
2023-02-03T17:59:06.551Z,74.06
2023-02-03T18:01:34.300Z,73.55
2023-02-03T18:04:04.590Z,74.07
2023-02-03T18:06:35.109Z,74.21
2023-02-03T18:09:03.145Z,73.46
2023-02-03T18:11:32.472Z,72.00
2023-02-03T18:14:01.015Z,72.62
2023-02-03T18:16:33.383Z,71.63
2023-02-03T18:19:02.828Z,68.09
2023-02-03T18:21:32.265Z,66.72
2023-02-03T18:24:01.876Z,67.02
2023-02-03T18:26:32.576Z,65.87
2023-02-03T18:29:00.282Z,65.28
2023-02-03T18:31:28.487Z,66.10
2023-02-03T18:33:57.764Z,66.84
2023-02-03T18:36:25.673Z,65.49
2023-02-03T18:38:53.374Z,67.83
2023-02-03T18:41:23.455Z,67.36
2023-02-03T18:43:51.408Z,67.53
2023-02-03T18:46:21.161Z,69.40
2023-02-03T18:48:49.262Z,68.82
2023-02-03T18:51:21.526Z,66.71
2023-02-03T18:53:50.072Z,66.27
2023-02-03T18:56:20.546Z,66.52
2023-02-03T18:58:49.047Z,66.85
2023-02-03T19:01:25.424Z,65.72
2023-02-03T19:03:54.703Z,64.74
2023-02-03T19:06:24.506Z,65.28
2023-02-03T19:08:52.473Z,64.12
2023-02-03T19:11:21.155Z,65.48
2023-02-03T19:13:49.125Z,66.72
2023-02-03T19:16:20.411Z,66.00
2023-02-03T19:18:48.994Z,65.68
2023-02-03T19:21:17.414Z,66.06
2023-02-03T19:23:46.558Z,66.01
2023-02-03T19:26:14.482Z,65.91
2023-02-03T19:28:42.336Z,67.02
2023-02-03T19:31:13.296Z,67.92
2023-02-03T19:33:41.069Z,68.75
2023-02-03T19:36:10.120Z,67.55
2023-02-03T19:38:38.498Z,68.40
2023-02-03T19:41:09.608Z,68.04
2023-02-03T19:43:37.330Z,68.27
2023-02-03T19:46:05.310Z,70.23
2023-02-03T19:48:33.315Z,73.81
2023-02-03T19:51:01.091Z,73.14
2023-02-03T19:53:28.896Z,73.19
2023-02-03T19:55:56.652Z,74.27
2023-02-03T19:58:25.978Z,74.49
2023-02-03T20:00:54.098Z,73.62
2023-02-03T20:03:22.746Z,73.73
2023-02-03T20:05:50.910Z,74.24
2023-02-03T20:08:18.683Z,73.88
2023-02-03T20:10:46.745Z,73.78
2023-02-03T20:13:15.030Z,74.41
2023-02-03T20:15:46.791Z,73.56
2023-02-03T20:18:14.570Z,76.73
2023-02-03T20:20:42.426Z,75.88
2023-02-03T20:23:10.347Z,76.05
2023-02-03T20:25:38.169Z,76.01
2023-02-03T20:28:06.003Z,76.17
2023-02-03T20:30:34.031Z,76.29
2023-02-03T20:33:04.692Z,75.38
2023-02-03T20:35:32.625Z,75.55
2023-02-03T20:38:00.369Z,75.00
2023-02-03T20:40:29.798Z,75.28
2023-02-03T20:43:02.522Z,75.63
2023-02-03T20:45:31.163Z,75.66
2023-02-03T20:47:59.412Z,74.84
2023-02-03T20:50:40.570Z,76.23
2023-02-03T20:53:13.876Z,76.07
2023-02-03T20:55:42.085Z,75.62
2023-02-03T20:58:18.099Z,75.24
2023-02-03T21:00:46.359Z,76.11
2023-02-03T21:03:33.586Z,75.39
2023-02-03T21:06:03.512Z,75.82
2023-02-03T21:08:31.534Z,77.01
2023-02-03T21:10:59.290Z,77.03
2023-02-03T21:13:29.272Z,77.04
2023-02-03T21:15:59.611Z,75.07
2023-02-03T21:18:33.814Z,76.27
2023-02-03T21:21:03.504Z,76.71
2023-02-03T21:23:39.795Z,75.86
2023-02-03T21:26:17.992Z,75.70
2023-02-03T21:28:46.060Z,75.88
2023-02-03T21:31:21.795Z,74.94
2023-02-03T21:33:50.052Z,75.16
2023-02-03T21:36:20.985Z,74.98
2023-02-03T21:38:51.245Z,75.21
2023-02-03T21:41:21.139Z,74.48
2023-02-03T21:43:51.923Z,75.54
2023-02-03T21:46:23.973Z,74.18
2023-02-03T21:48:54.266Z,75.65
2023-02-03T21:51:26.526Z,76.27
2023-02-03T21:53:56.438Z,75.47
2023-02-03T21:56:26.276Z,75.33
2023-02-03T21:58:57.598Z,74.35
2023-02-03T22:01:26.521Z,72.88
2023-02-03T22:03:55.607Z,73.64
2023-02-03T22:06:27.455Z,72.09
2023-02-03T22:08:57.761Z,71.25
2023-02-03T22:11:28.403Z,70.76
2023-02-03T22:13:56.950Z,70.71
2023-02-03T22:16:24.947Z,69.27
2023-02-03T22:18:53.341Z,70.01
2023-02-03T22:21:21.206Z,70.68
2023-02-03T22:23:50.397Z,70.57
2023-02-03T22:26:18.775Z,69.39
2023-02-03T22:28:46.634Z,71.19
2023-02-03T22:31:15.443Z,72.24
2023-02-03T22:33:43.610Z,72.05
2023-02-03T22:36:11.874Z,71.53
2023-02-03T22:38:40.684Z,71.09
2023-02-03T22:41:11.814Z,69.88
2023-02-03T22:43:39.795Z,69.61
2023-02-03T22:46:08.356Z,71.46
2023-02-03T22:48:36.521Z,69.21
2023-02-03T22:51:04.996Z,69.33
2023-02-03T22:53:34.675Z,70.44
2023-02-03T22:56:02.587Z,68.91
2023-02-03T22:58:31.639Z,68.59
2023-02-03T23:00:59.334Z,68.27
2023-02-03T23:03:27.061Z,68.70
2023-02-03T23:05:56.450Z,66.90
2023-02-03T23:08:24.219Z,66.10
2023-02-03T23:10:51.933Z,66.75
2023-02-03T23:13:19.890Z,68.10
2023-02-03T23:15:49.391Z,68.47
2023-02-03T23:18:17.130Z,68.68
2023-02-03T23:20:44.872Z,68.64
2023-02-03T23:23:14.112Z,68.72
2023-02-03T23:25:41.876Z,68.57
2023-02-03T23:28:09.698Z,67.64
2023-02-03T23:30:37.492Z,70.13
2023-02-03T23:33:06.670Z,68.82
2023-02-03T23:35:45.644Z,68.63
2023-02-03T23:38:13.972Z,68.74
2023-02-03T23:40:41.993Z,68.03
2023-02-03T23:43:09.915Z,67.46
2023-02-03T23:45:37.666Z,67.87
2023-02-03T23:48:07.135Z,68.45
2023-02-03T23:50:34.958Z,66.66
2023-02-03T23:53:02.678Z,67.51
2023-02-03T23:55:31.289Z,66.37
2023-02-03T23:57:59.059Z,66.41
